Time;durP1;ratioP1;P1;durP2;ratioP2;P2;SDS_P1;SDS_P2;PMS_P1;PMS_P2;Temp;Humidity;BMP_temperature;BMP_pressure;BME280_temperature;BME280_humidity;BME280_pressure;Samples;Min_cycle;Max_cycle;Signal;HPM_P1;HPM_P2
2023/08/08 00:02:20;;;;;;;;;;;15.00;99.90;;;;;;4992098;28;19971;-60
2023/08/08 00:04:48;;;;;;;;;;;15.00;99.90;;;;;;4991602;28;20052;-60
2023/08/08 00:07:15;;;;;;;;;;;14.90;99.90;;;;;;4992413;28;19969;-59
2023/08/08 00:09:41;;;;;;;;;;;15.00;99.90;;;;;;4991898;28;19996;-60
2023/08/08 00:12:08;;;;;;;;;;;14.90;99.90;;;;;;4992168;28;19976;-59
2023/08/08 00:14:35;;;;;;;;;;;15.00;99.90;;;;;;4991748;28;20290;-60
2023/08/08 00:17:01;;;;;;;;;;;14.90;99.90;;;;;;4988336;28;19976;-59
2023/08/08 00:19:28;;;;;;;;;;;14.90;99.90;;;;;;4992059;28;19957;-59
2023/08/08 00:21:55;;;;;;;;;;;14.70;99.90;;;;;;4991363;28;20381;-60
2023/08/08 00:24:22;;;;;;;;;;;14.70;99.90;;;;;;4991545;28;19988;-59
2023/08/08 00:26:48;;;;;;;;;;;14.70;99.90;;;;;;4991600;28;19921;-59
2023/08/08 00:29:15;;;;;;;;;;;14.70;99.90;;;;;;4990982;28;20434;-59
2023/08/08 00:31:42;;;;;;;;;;;14.70;99.90;;;;;;4989358;28;20048;-60
2023/08/08 00:34:08;;;;;;;;;;;14.70;99.90;;;;;;4991830;28;19922;-59
2023/08/08 00:36:35;;;;;;;;;;;14.60;99.90;;;;;;4991193;28;19921;-58
2023/08/08 00:39:02;;;;;;;;;;;14.60;99.90;;;;;;4991533;28;19925;-60
2023/08/08 00:41:29;;;;;;;;;;;14.50;99.90;;;;;;4989306;28;19980;-60
2023/08/08 00:43:55;;;;;;;;;;;14.50;99.90;;;;;;4990063;28;19922;-59
2023/08/08 00:46:24;;;;;;;;;;;14.60;99.90;;;;;;4989318;28;20306;-59
2023/08/08 00:48:51;;;;;;;;;;;14.60;99.90;;;;;;4988811;28;20395;-59
2023/08/08 00:51:18;;;;;;;;;;;14.60;99.90;;;;;;4988886;28;19976;-59
2023/08/08 00:53:45;;;;;;;;;;;14.60;99.90;;;;;;4990188;28;19977;-60
2023/08/08 00:56:16;;;;;;;;;;;14.60;99.90;;;;;;4989646;28;19965;-59
2023/08/08 00:58:46;;;;;;;;;;;14.60;99.90;;;;;;4991190;28;19929;-60
2023/08/08 01:01:13;;;;;;;;;;;14.60;99.90;;;;;;4989126;28;19967;-60
2023/08/08 01:03:40;;;;;;;;;;;14.60;99.90;;;;;;4988181;28;20003;-59
2023/08/08 01:06:18;;;;;;;;;;;14.60;99.90;;;;;;4987926;28;19961;-59
2023/08/08 01:08:46;;;;;;;;;;;14.60;99.90;;;;;;4988026;28;20361;-59
2023/08/08 01:11:14;;;;;;;;;;;14.60;99.90;;;;;;4989588;28;19983;-59
2023/08/08 01:13:41;;;;;;;;;;;14.60;99.90;;;;;;4989201;28;20380;-60
2023/08/08 01:16:07;;;;;;;;;;;14.60;99.90;;;;;;4989195;28;20298;-60
2023/08/08 01:18:34;;;;;;;;;;;14.50;99.90;;;;;;4989082;28;20026;-59
2023/08/08 01:21:01;;;;;;;;;;;14.50;99.90;;;;;;4989643;28;19921;-60
2023/08/08 01:23:35;;;;;;;;;;;14.40;99.90;;;;;;4988854;28;19972;-60
2023/08/08 01:26:01;;;;;;;;;;;14.40;99.90;;;;;;4990522;28;20305;-60
2023/08/08 01:28:28;;;;;;;;;;;14.40;99.90;;;;;;4990055;28;19926;-64
2023/08/08 01:30:55;;;;;;;;;;;14.40;99.90;;;;;;4989170;28;20385;-59
2023/08/08 01:33:22;;;;;;;;;;;14.40;99.90;;;;;;4990069;28;19925;-59
2023/08/08 01:36:09;;;;;;;;;;;14.30;99.90;;;;;;4990141;28;19976;-59
2023/08/08 01:38:40;;;;;;;;;;;14.30;99.90;;;;;;4989457;28;19983;-60
2023/08/08 01:41:07;;;;;;;;;;;14.20;99.90;;;;;;4990528;28;20413;-58
2023/08/08 01:43:33;;;;;;;;;;;14.20;99.90;;;;;;4987980;28;20373;-59
2023/08/08 01:46:00;;;;;;;;;;;14.20;99.90;;;;;;4988529;28;19925;-60
2023/08/08 01:48:27;;;;;;;;;;;14.20;99.90;;;;;;4988737;28;19972;-59
2023/08/08 01:50:54;;;;;;;;;;;14.10;99.90;;;;;;4990138;28;20008;-60
2023/08/08 01:53:21;;;;;;;;;;;14.20;99.90;;;;;;4989602;28;20138;-59
2023/08/08 01:55:47;;;;;;;;;;;14.20;99.90;;;;;;4989862;28;20012;-59
2023/08/08 01:58:14;;;;;;;;;;;14.20;99.90;;;;;;4989674;28;19969;-60
2023/08/08 02:00:43;;;;;;;;;;;14.10;99.90;;;;;;4989870;28;19977;-59
2023/08/08 02:03:09;;;;;;;;;;;14.10;99.90;;;;;;4989337;28;19929;-60
2023/08/08 02:05:36;;;;;;;;;;;14.10;99.90;;;;;;4989886;28;19922;-60
2023/08/08 02:08:03;;;;;;;;;;;14.10;99.90;;;;;;4989896;28;19930;-59
2023/08/08 02:10:30;;;;;;;;;;;14.10;99.90;;;;;;4989694;28;19925;-60
2023/08/08 02:12:57;;;;;;;;;;;14.10;99.90;;;;;;4989346;28;19984;-59
2023/08/08 02:15:23;;;;;;;;;;;14.10;99.90;;;;;;4988671;28;19930;-59
2023/08/08 02:17:50;;;;;;;;;;;14.00;99.90;;;;;;4989716;28;19957;-59
2023/08/08 02:20:17;;;;;;;;;;;14.00;99.90;;;;;;4989299;28;19969;-59
2023/08/08 02:22:44;;;;;;;;;;;14.00;99.90;;;;;;4988018;28;19925;-60
2023/08/08 02:25:11;;;;;;;;;;;14.00;99.90;;;;;;4992026;28;20250;-59
2023/08/08 02:27:38;;;;;;;;;;;13.90;99.90;;;;;;4989602;28;19961;-59
2023/08/08 02:30:04;;;;;;;;;;;13.90;99.90;;;;;;4989136;28;20005;-59
2023/08/08 02:32:31;;;;;;;;;;;13.90;99.90;;;;;;4987813;28;19980;-57
2023/08/08 02:34:58;;;;;;;;;;;13.90;99.90;;;;;;4992875;28;20426;-59
2023/08/08 02:37:25;;;;;;;;;;;13.90;99.90;;;;;;4989312;28;19922;-60
2023/08/08 02:39:51;;;;;;;;;;;13.90;99.90;;;;;;4987803;28;19922;-60
2023/08/08 02:42:18;;;;;;;;;;;13.90;99.90;;;;;;4989509;28;20169;-59
2023/08/08 02:44:45;;;;;;;;;;;13.90;99.90;;;;;;4988910;28;19937;-59
2023/08/08 02:47:11;;;;;;;;;;;13.90;99.90;;;;;;4988579;28;20188;-60
2023/08/08 02:49:38;;;;;;;;;;;13.90;99.90;;;;;;4989013;28;19980;-60
2023/08/08 02:52:05;;;;;;;;;;;13.80;99.90;;;;;;4988963;28;20005;-59
2023/08/08 02:54:32;;;;;;;;;;;13.90;99.90;;;;;;4988212;28;19922;-60
2023/08/08 02:56:59;;;;;;;;;;;13.80;99.90;;;;;;4988087;28;19925;-61
2023/08/08 02:59:25;;;;;;;;;;;13.80;99.90;;;;;;4989294;28;19929;-60
2023/08/08 03:01:52;;;;;;;;;;;13.80;99.90;;;;;;4988173;28;19937;-60
2023/08/08 03:04:19;;;;;;;;;;;13.80;99.90;;;;;;4989756;28;19921;-60
2023/08/08 03:06:45;;;;;;;;;;;13.80;99.90;;;;;;4987704;28;19928;-60
2023/08/08 03:09:12;;;;;;;;;;;13.80;99.90;;;;;;4989393;28;19976;-60
2023/08/08 03:11:41;;;;;;;;;;;13.70;99.90;;;;;;4988310;28;20215;-63
2023/08/08 03:14:08;;;;;;;;;;;13.70;99.90;;;;;;4988778;28;19922;-60
2023/08/08 03:16:35;;;;;;;;;;;13.80;99.90;;;;;;4987667;28;20020;-61
2023/08/08 03:19:02;;;;;;;;;;;13.70;99.90;;;;;;4989016;28;19953;-60
2023/08/08 03:21:29;;;;;;;;;;;13.70;99.90;;;;;;4988200;28;19926;-60
2023/08/08 03:23:56;;;;;;;;;;;13.70;99.90;;;;;;4988942;28;20011;-60
2023/08/08 03:26:23;;;;;;;;;;;13.70;99.90;;;;;;4987980;28;19985;-60
2023/08/08 03:28:53;;;;;;;;;;;13.70;99.90;;;;;;4988974;28;19922;-60
2023/08/08 03:31:20;;;;;;;;;;;13.70;99.90;;;;;;4988324;28;19972;-61
2023/08/08 03:33:47;;;;;;;;;;;13.80;99.90;;;;;;4988880;28;19977;-60
2023/08/08 03:36:14;;;;;;;;;;;13.80;99.90;;;;;;4987380;28;19937;-57
2023/08/08 03:38:45;;;;;;;;;;;13.80;99.90;;;;;;4988916;28;19964;-59
2023/08/08 03:41:13;;;;;;;;;;;13.80;99.90;;;;;;4988468;28;20025;-59
2023/08/08 03:43:40;;;;;;;;;;;13.80;99.90;;;;;;4988563;28;19922;-58
2023/08/08 03:46:06;;;;;;;;;;;13.90;99.90;;;;;;4988209;28;19922;-58
2023/08/08 03:48:33;;;;;;;;;;;13.90;99.90;;;;;;4988500;28;19953;-59
2023/08/08 03:51:00;;;;;;;;;;;13.80;99.90;;;;;;4988939;28;19921;-57
2023/08/08 03:53:26;;;;;;;;;;;13.80;99.90;;;;;;4987445;28;19934;-59
2023/08/08 03:55:53;;;;;;;;;;;13.70;99.90;;;;;;4988356;28;20443;-59
2023/08/08 03:58:20;;;;;;;;;;;13.70;99.90;;;;;;4988251;28;19968;-59
2023/08/08 04:00:46;;;;;;;;;;;13.70;99.90;;;;;;4988916;28;19928;-59
2023/08/08 04:03:14;;;;;;;;;;;13.80;99.90;;;;;;4986574;28;19932;-59
2023/08/08 04:05:43;;;;;;;;;;;13.90;99.90;;;;;;4977314;28;19922;-59
2023/08/08 04:08:10;;;;;;;;;;;13.90;99.90;;;;;;4989880;28;19963;-61
2023/08/08 04:10:37;;;;;;;;;;;13.90;99.90;;;;;;4992221;28;19934;-59
2023/08/08 04:13:03;;;;;;;;;;;13.90;99.90;;;;;;4991421;28;19968;-58
2023/08/08 04:15:30;;;;;;;;;;;13.90;99.90;;;;;;4992201;28;19975;-59
2023/08/08 04:17:57;;;;;;;;;;;14.00;99.90;;;;;;4991130;28;20203;-59
2023/08/08 04:20:23;;;;;;;;;;;14.00;99.90;;;;;;4991802;28;19921;-59
2023/08/08 04:22:50;;;;;;;;;;;14.00;99.90;;;;;;4991261;28;19922;-59
2023/08/08 04:25:17;;;;;;;;;;;14.00;99.90;;;;;;4991530;28;20276;-59
2023/08/08 04:27:43;;;;;;;;;;;14.10;99.90;;;;;;4990605;28;19921;-59
2023/08/08 04:30:10;;;;;;;;;;;14.10;99.90;;;;;;4980233;28;20150;-59
2023/08/08 04:32:37;;;;;;;;;;;14.20;99.90;;;;;;4972575;28;19926;-59
2023/08/08 04:35:04;;;;;;;;;;;14.10;99.90;;;;;;4991290;28;20020;-59
2023/08/08 04:37:30;;;;;;;;;;;14.10;99.90;;;;;;4991259;28;20144;-59
2023/08/08 04:39:57;;;;;;;;;;;14.10;99.90;;;;;;4990830;28;19972;-59
2023/08/08 04:42:24;;;;;;;;;;;14.10;99.90;;;;;;4990607;28;20443;-59
2023/08/08 04:44:51;;;;;;;;;;;14.10;99.90;;;;;;4990608;28;19922;-59
2023/08/08 04:47:17;;;;;;;;;;;14.00;99.90;;;;;;4991403;28;19922;-59
2023/08/08 04:49:44;;;;;;;;;;;14.10;99.90;;;;;;4990997;28;19925;-59
2023/08/08 04:52:11;;;;;;;;;;;14.10;99.90;;;;;;4989963;28;20440;-59
2023/08/08 04:54:37;;;;;;;;;;;14.10;99.90;;;;;;4990609;28;20443;-59
2023/08/08 04:57:04;;;;;;;;;;;14.20;99.90;;;;;;4990061;28;19921;-59
2023/08/08 04:59:31;;;;;;;;;;;14.20;99.90;;;;;;4990789;28;19925;-59
2023/08/08 05:01:58;;;;;;;;;;;14.20;99.90;;;;;;4979925;28;19922;-59
2023/08/08 05:04:25;;;;;;;;;;;14.20;99.90;;;;;;4990560;28;19968;-59
2023/08/08 05:06:52;;;;;;;;;;;14.20;99.90;;;;;;4990872;28;19984;-59
2023/08/08 05:09:20;;;;;;;;;;;14.10;99.90;;;;;;4990097;28;19928;-60
2023/08/08 05:11:47;;;;;;;;;;;14.10;99.90;;;;;;4990553;28;19922;-59
2023/08/08 05:14:13;;;;;;;;;;;14.10;99.90;;;;;;4990838;28;19996;-60
2023/08/08 05:16:40;;;;;;;;;;;14.20;99.90;;;;;;4988818;28;19926;-60
2023/08/08 05:19:07;;;;;;;;;;;14.10;99.90;;;;;;4989688;28;20196;-59
2023/08/08 05:21:34;;;;;;;;;;;14.10;99.90;;;;;;4990622;28;19926;-59
2023/08/08 05:24:01;;;;;;;;;;;14.10;99.90;;;;;;4990902;28;19969;-59
2023/08/08 05:26:27;;;;;;;;;;;14.10;99.90;;;;;;4990207;28;19925;-59
2023/08/08 05:28:54;;;;;;;;;;;14.10;99.90;;;;;;4990457;28;19921;-59
2023/08/08 05:31:21;;;;;;;;;;;14.20;99.90;;;;;;4989267;28;19922;-59
2023/08/08 05:33:48;;;;;;;;;;;14.10;99.90;;;;;;4989059;28;19998;-59
2023/08/08 05:36:14;;;;;;;;;;;14.10;99.90;;;;;;4990023;28;19968;-59
2023/08/08 05:38:41;;;;;;;;;;;14.10;99.90;;;;;;4990578;28;19926;-59
2023/08/08 05:41:08;;;;;;;;;;;14.10;99.90;;;;;;4989806;28;19926;-60
2023/08/08 05:43:35;;;;;;;;;;;14.10;99.90;;;;;;4990150;28;19984;-60
2023/08/08 05:46:02;;;;;;;;;;;14.10;99.90;;;;;;4989811;28;19961;-60
2023/08/08 05:48:29;;;;;;;;;;;14.10;99.90;;;;;;4990229;28;19921;-59
2023/08/08 05:50:58;;;;;;;;;;;14.10;99.90;;;;;;4989669;28;20909;-60
2023/08/08 05:53:25;;;;;;;;;;;14.20;99.90;;;;;;4989691;28;19975;-60
2023/08/08 05:55:52;;;;;;;;;;;14.20;99.90;;;;;;4989867;28;19922;-60
2023/08/08 05:58:19;;;;;;;;;;;14.30;99.90;;;;;;4989859;28;19922;-59
2023/08/08 06:00:45;;;;;;;;;;;14.30;99.90;;;;;;4989335;28;19984;-60
2023/08/08 06:03:12;;;;;;;;;;;14.40;99.90;;;;;;4988127;28;19921;-60
2023/08/08 06:05:41;;;;;;;;;;;14.50;99.90;;;;;;4989877;28;19922;-60
2023/08/08 06:08:11;;;;;;;;;;;14.50;99.90;;;;;;4985729;28;20414;-60
2023/08/08 06:10:38;;;;;;;;;;;14.50;99.90;;;;;;4989335;28;20024;-60
2023/08/08 06:13:04;;;;;;;;;;;14.50;99.90;;;;;;4989364;28;19968;-60
2023/08/08 06:15:31;;;;;;;;;;;14.50;99.90;;;;;;4986566;28;20435;-57
2023/08/08 06:17:59;;;;;;;;;;;14.50;99.90;;;;;;4987812;28;20021;-56
2023/08/08 06:20:26;;;;;;;;;;;14.50;99.90;;;;;;4989138;28;19922;-57
2023/08/08 06:22:52;;;;;;;;;;;14.60;99.90;;;;;;4988895;28;19930;-58
2023/08/08 06:25:19;;;;;;;;;;;14.60;99.90;;;;;;4989909;28;19928;-57
2023/08/08 06:27:46;;;;;;;;;;;14.60;99.90;;;;;;4991850;28;20403;-56
2023/08/08 06:30:15;;;;;;;;;;;14.80;99.90;;;;;;4997516;28;20294;-56
2023/08/08 06:32:42;;;;;;;;;;;14.80;99.90;;;;;;4996965;28;19953;-56
2023/08/08 06:35:08;;;;;;;;;;;14.90;99.90;;;;;;4989585;28;19921;-57
2023/08/08 06:37:37;;;;;;;;;;;14.90;99.90;;;;;;4988671;28;19985;-59
2023/08/08 06:40:07;;;;;;;;;;;14.90;99.90;;;;;;4988797;28;19922;-57
2023/08/08 06:42:33;;;;;;;;;;;15.00;99.90;;;;;;4988071;28;19960;-57
2023/08/08 06:45:00;;;;;;;;;;;15.10;99.90;;;;;;4988947;28;20016;-58
2023/08/08 06:47:27;;;;;;;;;;;15.20;99.90;;;;;;4985718;28;19926;-56
2023/08/08 06:49:54;;;;;;;;;;;15.20;99.90;;;;;;4988749;28;20411;-57
2023/08/08 06:52:21;;;;;;;;;;;15.20;99.90;;;;;;4988431;28;20454;-58
2023/08/08 06:54:48;;;;;;;;;;;15.30;99.90;;;;;;4988569;28;19931;-57
2023/08/08 06:57:15;;;;;;;;;;;15.30;99.90;;;;;;4987718;28;19968;-57
2023/08/08 06:59:41;;;;;;;;;;;15.40;99.90;;;;;;4985350;28;19921;-57
2023/08/08 07:02:08;;;;;;;;;;;15.60;99.90;;;;;;4985726;28;19929;-56
2023/08/08 07:04:35;;;;;;;;;;;15.60;99.90;;;;;;4641482;28;10000129;-54
2023/08/08 07:07:02;;;;;;;;;;;15.70;99.90;;;;;;4985871;28;19950;-56
2023/08/08 07:09:29;;;;;;;;;;;15.70;99.90;;;;;;4982964;28;20020;-57
2023/08/08 07:11:56;;;;;;;;;;;15.60;99.90;;;;;;4985353;28;19925;-59
2023/08/08 07:14:23;;;;;;;;;;;15.60;99.90;;;;;;4984711;28;19925;-58
2023/08/08 07:16:50;;;;;;;;;;;15.60;99.90;;;;;;4982293;28;19933;-55
2023/08/08 07:19:16;;;;;;;;;;;15.60;99.90;;;;;;4984726;28;20468;-57
2023/08/08 07:21:43;;;;;;;;;;;15.80;99.90;;;;;;4984958;28;19980;-58
2023/08/08 07:24:10;;;;;;;;;;;15.90;99.90;;;;;;4984942;28;20511;-56
2023/08/08 07:26:36;;;;;;;;;;;16.00;99.90;;;;;;4985283;28;19949;-57
2023/08/08 07:29:05;;;;;;;;;;;16.00;99.90;;;;;;4985102;28;19972;-59
2023/08/08 07:31:32;;;;;;;;;;;16.00;99.90;;;;;;4981991;28;20412;-58
2023/08/08 07:33:59;;;;;;;;;;;16.00;99.90;;;;;;4985473;28;19925;-59
2023/08/08 07:36:26;;;;;;;;;;;16.00;99.90;;;;;;4985214;28;20377;-58
2023/08/08 07:38:56;;;;;;;;;;;16.00;99.90;;;;;;4984930;28;19926;-58
2023/08/08 07:41:24;;;;;;;;;;;16.00;99.90;;;;;;4985796;28;19949;-58
2023/08/08 07:43:51;;;;;;;;;;;15.90;99.90;;;;;;5000464;28;19964;-55
2023/08/08 07:46:17;;;;;;;;;;;15.90;99.90;;;;;;5000294;28;20204;-59
2023/08/08 07:48:44;;;;;;;;;;;15.80;99.90;;;;;;5007714;28;19925;-56
2023/08/08 07:51:11;;;;;;;;;;;15.70;99.90;;;;;;4999033;28;19925;-55
2023/08/08 07:53:38;;;;;;;;;;;15.70;99.90;;;;;;5003799;28;19925;-57
2023/08/08 07:56:04;;;;;;;;;;;15.70;99.90;;;;;;4993731;28;20030;-56
2023/08/08 07:58:32;;;;;;;;;;;15.60;99.90;;;;;;4985241;28;20022;-53
2023/08/08 08:00:59;;;;;;;;;;;15.40;99.90;;;;;;4990428;28;20455;-56
2023/08/08 08:03:28;;;;;;;;;;;15.30;99.90;;;;;;4991695;28;19971;-58
2023/08/08 08:05:55;;;;;;;;;;;15.30;99.90;;;;;;4991952;28;20017;-58
2023/08/08 08:08:22;;;;;;;;;;;15.10;99.90;;;;;;4986634;28;20012;-58
2023/08/08 08:10:50;;;;;;;;;;;15.20;99.90;;;;;;4986756;28;19984;-58
2023/08/08 08:13:17;;;;;;;;;;;15.10;99.90;;;;;;4987308;28;20336;-58
2023/08/08 08:15:44;;;;;;;;;;;15.10;99.90;;;;;;4987247;28;20473;-57
2023/08/08 08:18:12;;;;;;;;;;;15.10;99.90;;;;;;4987958;28;19984;-55
2023/08/08 08:20:40;;;;;;;;;;;15.20;99.90;;;;;;5003105;28;19969;-56
2023/08/08 08:23:07;;;;;;;;;;;15.20;99.90;;;;;;4988929;28;19926;-57
2023/08/08 08:25:34;;;;;;;;;;;15.30;99.90;;;;;;4988255;28;20027;-54
2023/08/08 08:28:01;;;;;;;;;;;15.30;99.90;;;;;;4988564;28;19922;-58
2023/08/08 08:30:28;;;;;;;;;;;15.30;99.90;;;;;;4987554;28;19925;-57
2023/08/08 08:32:56;;;;;;;;;;;15.30;99.90;;;;;;4988525;28;20008;-56
2023/08/08 08:35:23;;;;;;;;;;;15.20;99.90;;;;;;4977758;28;19922;-58
2023/08/08 08:37:50;;;;;;;;;;;15.20;99.90;;;;;;4988366;28;19973;-57
2023/08/08 08:40:17;;;;;;;;;;;15.20;99.90;;;;;;4993595;28;19960;-57
2023/08/08 08:42:43;;;;;;;;;;;15.10;99.90;;;;;;4991974;28;19932;-57
2023/08/08 08:45:10;;;;;;;;;;;15.10;99.90;;;;;;4990514;28;19929;-57
2023/08/08 08:47:37;;;;;;;;;;;15.10;99.90;;;;;;4993777;28;19925;-58
2023/08/08 08:50:04;;;;;;;;;;;15.10;99.90;;;;;;4985954;28;19922;-56
2023/08/08 08:52:31;;;;;;;;;;;14.90;99.90;;;;;;4989526;28;20036;-54
2023/08/08 08:54:58;;;;;;;;;;;15.00;99.90;;;;;;5004713;28;19932;-57
2023/08/08 08:57:24;;;;;;;;;;;15.00;99.90;;;;;;5002780;28;19999;-56
2023/08/08 08:59:51;;;;;;;;;;;15.10;99.90;;;;;;5002716;28;20550;-54
2023/08/08 09:02:18;;;;;;;;;;;15.20;99.90;;;;;;5000018;28;19930;-58
2023/08/08 09:04:45;;;;;;;;;;;15.20;99.90;;;;;;5005318;28;19929;-57
2023/08/08 09:07:12;;;;;;;;;;;15.20;99.90;;;;;;5002020;28;19935;-57
2023/08/08 09:09:38;;;;;;;;;;;15.10;99.90;;;;;;4995553;28;20045;-58
2023/08/08 09:12:05;;;;;;;;;;;15.10;99.90;;;;;;5005865;28;19921;-58
2023/08/08 09:14:32;;;;;;;;;;;15.10;99.90;;;;;;5002197;28;19964;-57
2023/08/08 09:16:59;;;;;;;;;;;15.10;99.90;;;;;;5005620;28;19925;-58
2023/08/08 09:19:26;;;;;;;;;;;15.10;99.90;;;;;;4998441;28;19921;-58
2023/08/08 09:21:52;;;;;;;;;;;15.10;99.90;;;;;;5005761;28;19977;-57
2023/08/08 09:24:19;;;;;;;;;;;15.10;99.90;;;;;;5000610;28;19972;-57
2023/08/08 09:26:46;;;;;;;;;;;15.20;99.90;;;;;;5006698;28;19933;-56
2023/08/08 09:29:13;;;;;;;;;;;15.20;99.90;;;;;;4997169;28;19933;-56
2023/08/08 09:31:40;;;;;;;;;;;15.40;99.90;;;;;;5004880;28;19925;-52
2023/08/08 09:34:07;;;;;;;;;;;15.50;99.90;;;;;;4994882;28;20018;-57
2023/08/08 09:36:34;;;;;;;;;;;15.60;99.90;;;;;;5000986;28;19926;-56
2023/08/08 09:39:01;;;;;;;;;;;15.60;99.90;;;;;;4996905;28;20450;-57
2023/08/08 09:41:28;;;;;;;;;;;15.60;99.90;;;;;;5005563;28;19968;-56
2023/08/08 09:43:55;;;;;;;;;;;15.50;99.90;;;;;;5001026;28;19969;-55
2023/08/08 09:46:22;;;;;;;;;;;15.60;99.90;;;;;;5004028;28;19925;-57
2023/08/08 09:48:49;;;;;;;;;;;15.60;99.90;;;;;;5000869;28;20016;-56
2023/08/08 09:51:16;;;;;;;;;;;15.60;99.90;;;;;;5002051;28;19929;-56
2023/08/08 09:53:44;;;;;;;;;;;15.60;99.90;;;;;;5002855;28;19936;-54
2023/08/08 09:56:10;;;;;;;;;;;15.70;99.90;;;;;;4996735;28;19929;-55
2023/08/08 09:58:37;;;;;;;;;;;15.60;99.90;;;;;;5004750;28;20466;-54
2023/08/08 10:01:04;;;;;;;;;;;15.70;99.90;;;;;;4996996;28;19932;-62
2023/08/08 10:03:32;;;;;;;;;;;15.70;99.90;;;;;;5001031;28;19929;-59
2023/08/08 10:06:00;;;;;;;;;;;15.60;99.90;;;;;;4995918;28;19921;-56
2023/08/08 10:08:29;;;;;;;;;;;15.60;99.90;;;;;;4993219;28;19930;-58
2023/08/08 10:10:55;;;;;;;;;;;15.60;99.90;;;;;;4988763;28;20349;-59
2023/08/08 10:13:23;;;;;;;;;;;15.60;99.90;;;;;;4999195;28;20434;-59
2023/08/08 10:15:49;;;;;;;;;;;15.60;99.90;;;;;;4985782;28;20491;-60
2023/08/08 10:18:16;;;;;;;;;;;15.60;99.90;;;;;;4992582;28;19961;-59
2023/08/08 10:20:44;;;;;;;;;;;15.60;99.90;;;;;;4994169;28;19925;-60
2023/08/08 10:23:11;;;;;;;;;;;15.60;99.90;;;;;;5002844;28;19933;-60
2023/08/08 10:25:38;;;;;;;;;;;15.60;99.90;;;;;;4996255;28;19930;-60
2023/08/08 10:28:10;;;;;;;;;;;15.60;99.90;;;;;;4993333;28;19964;-60
2023/08/08 10:30:56;;;;;;;;;;;15.70;99.90;;;;;;4991203;28;19930;-60
2023/08/08 10:33:26;;;;;;;;;;;15.80;99.90;;;;;;4992593;28;19925;-60
2023/08/08 10:36:00;;;;;;;;;;;15.80;99.90;;;;;;4992658;28;20688;-58
2023/08/08 10:38:37;;;;;;;;;;;15.90;99.90;;;;;;4990225;28;19984;-59
2023/08/08 10:41:04;;;;;;;;;;;15.90;99.90;;;;;;4986370;28;19925;-59
2023/08/08 10:43:31;;;;;;;;;;;16.00;99.90;;;;;;4990769;28;19968;-59
2023/08/08 10:45:59;;;;;;;;;;;16.00;99.90;;;;;;4988675;28;19936;-59
2023/08/08 10:48:50;;;;;;;;;;;15.90;99.90;;;;;;4987644;28;20009;-60
2023/08/08 10:51:17;;;;;;;;;;;15.90;99.90;;;;;;4989222;28;20384;-59
2023/08/08 10:53:44;;;;;;;;;;;16.10;99.90;;;;;;5000236;28;20008;-59
2023/08/08 10:56:12;;;;;;;;;;;16.30;99.90;;;;;;4996028;28;19926;-59
2023/08/08 10:58:39;;;;;;;;;;;16.50;99.90;;;;;;4991288;28;19932;-58
2023/08/08 11:01:08;;;;;;;;;;;16.60;99.90;;;;;;4995526;28;19934;-60
2023/08/08 11:03:36;;;;;;;;;;;16.90;99.90;;;;;;4985799;28;19925;-59
2023/08/08 11:06:03;;;;;;;;;;;17.00;99.90;;;;;;4993537;28;20023;-59
2023/08/08 11:08:31;;;;;;;;;;;17.20;99.90;;;;;;4999759;28;20405;-60
2023/08/08 11:10:57;;;;;;;;;;;17.40;99.90;;;;;;5001208;28;19925;-61
2023/08/08 11:13:24;;;;;;;;;;;17.50;99.90;;;;;;4987483;28;19957;-59
2023/08/08 11:15:51;;;;;;;;;;;17.70;99.90;;;;;;4997539;28;19922;-59
2023/08/08 11:18:18;;;;;;;;;;;17.70;99.90;;;;;;4991013;28;20399;-59
2023/08/08 11:20:44;;;;;;;;;;;17.70;99.90;;;;;;4991611;28;19932;-57
2023/08/08 11:23:12;;;;;;;;;;;17.50;99.90;;;;;;4988676;28;19926;-59
2023/08/08 11:25:42;;;;;;;;;;;17.50;99.90;;;;;;4987374;28;19980;-57
2023/08/08 11:28:10;;;;;;;;;;;17.50;99.90;;;;;;4988400;28;19934;-57
2023/08/08 11:30:39;;;;;;;;;;;17.60;99.90;;;;;;4986573;28;19957;-59
2023/08/08 11:33:06;;;;;;;;;;;17.50;99.90;;;;;;4991929;28;20421;-57
2023/08/08 11:35:36;;;;;;;;;;;17.50;99.90;;;;;;4974034;28;19965;-60
2023/08/08 11:38:04;;;;;;;;;;;17.60;99.90;;;;;;4980307;28;19929;-59
2023/08/08 11:40:31;;;;;;;;;;;17.60;99.90;;;;;;4987287;28;19922;-59
2023/08/08 11:42:58;;;;;;;;;;;17.60;99.90;;;;;;4996756;28;20032;-59
2023/08/08 11:45:25;;;;;;;;;;;17.60;99.90;;;;;;4983366;28;20324;-58
2023/08/08 11:47:55;;;;;;;;;;;17.50;99.90;;;;;;4986461;28;20012;-59
2023/08/08 11:50:23;;;;;;;;;;;17.40;99.90;;;;;;4987757;28;19921;-60
2023/08/08 11:52:50;;;;;;;;;;;17.30;99.90;;;;;;4987254;28;19930;-60
2023/08/08 11:55:22;;;;;;;;;;;17.30;99.90;;;;;;4985429;28;19930;-59
2023/08/08 11:57:49;;;;;;;;;;;17.30;99.90;;;;;;4987154;28;19925;-60
2023/08/08 12:00:15;;;;;;;;;;;17.20;99.90;;;;;;4988945;28;19991;-59
2023/08/08 12:02:42;;;;;;;;;;;17.00;99.90;;;;;;4988545;28;19926;-60
2023/08/08 12:05:11;;;;;;;;;;;17.00;99.90;;;;;;4986857;28;19973;-58
2023/08/08 12:07:40;;;;;;;;;;;17.00;99.90;;;;;;4989323;28;19926;-59
2023/08/08 12:10:12;;;;;;;;;;;17.10;99.90;;;;;;4988810;28;20271;-59
2023/08/08 12:12:42;;;;;;;;;;;17.00;99.90;;;;;;4989207;28;19925;-59
2023/08/08 12:15:14;;;;;;;;;;;17.00;99.90;;;;;;4986763;28;20345;-59
2023/08/08 12:17:42;;;;;;;;;;;17.10;99.90;;;;;;4989209;28;20316;-59
2023/08/08 12:20:09;;;;;;;;;;;17.10;99.90;;;;;;4988862;28;19956;-59
2023/08/08 12:22:36;;;;;;;;;;;17.10;99.90;;;;;;4989016;28;19925;-59
2023/08/08 12:25:04;;;;;;;;;;;17.10;99.90;;;;;;4988278;28;19926;-59
2023/08/08 12:27:30;;;;;;;;;;;17.10;99.90;;;;;;4988200;28;19972;-58
2023/08/08 12:29:57;;;;;;;;;;;17.20;99.90;;;;;;4988087;28;20002;-58
2023/08/08 12:32:26;;;;;;;;;;;17.30;99.90;;;;;;4988304;28;19931;-59
2023/08/08 12:34:53;;;;;;;;;;;17.30;99.90;;;;;;4987676;28;19953;-59
2023/08/08 12:37:20;;;;;;;;;;;17.40;99.90;;;;;;4988351;28;19922;-59
2023/08/08 12:39:46;;;;;;;;;;;17.50;99.90;;;;;;4988397;28;19921;-59
2023/08/08 12:42:13;;;;;;;;;;;17.60;99.90;;;;;;4988757;28;19936;-58
2023/08/08 12:44:40;;;;;;;;;;;17.70;99.90;;;;;;4988392;28;20392;-60
2023/08/08 12:47:07;;;;;;;;;;;17.60;99.90;;;;;;4988351;28;19930;-60
2023/08/08 12:49:33;;;;;;;;;;;17.70;99.90;;;;;;4988178;28;19925;-60
2023/08/08 12:52:00;;;;;;;;;;;17.70;99.90;;;;;;4985472;28;19984;-59
2023/08/08 12:54:27;;;;;;;;;;;17.70;99.90;;;;;;4988121;28;19929;-59
2023/08/08 12:56:53;;;;;;;;;;;17.50;99.90;;;;;;4987708;28;19922;-59
2023/08/08 12:59:20;;;;;;;;;;;17.50;99.90;;;;;;4985484;28;19925;-59
2023/08/08 13:01:47;;;;;;;;;;;17.40;99.90;;;;;;4987238;28;20440;-60
2023/08/08 13:04:14;;;;;;;;;;;17.50;99.90;;;;;;4988219;28;19932;-59
2023/08/08 13:06:43;;;;;;;;;;;17.40;99.90;;;;;;4987617;28;19921;-60
2023/08/08 13:09:10;;;;;;;;;;;17.40;99.90;;;;;;4988171;28;20404;-60
2023/08/08 13:11:37;;;;;;;;;;;17.30;99.90;;;;;;4987488;28;20282;-60
2023/08/08 13:14:04;;;;;;;;;;;17.30;99.90;;;;;;4987171;28;19932;-60
2023/08/08 13:16:30;;;;;;;;;;;17.30;99.90;;;;;;4986674;28;19925;-59
2023/08/08 13:18:57;;;;;;;;;;;17.30;99.90;;;;;;4988222;28;20048;-59
2023/08/08 13:21:24;;;;;;;;;;;17.20;99.90;;;;;;4987659;28;20754;-59
2023/08/08 13:23:51;;;;;;;;;;;17.10;99.90;;;;;;4987937;28;19930;-59
2023/08/08 13:26:18;;;;;;;;;;;17.10;99.90;;;;;;4986520;28;19983;-59
2023/08/08 13:28:44;;;;;;;;;;;17.00;99.90;;;;;;4992463;28;20052;-59
2023/08/08 13:31:11;;;;;;;;;;;16.90;99.90;;;;;;5008328;28;19927;-59
2023/08/08 13:33:38;;;;;;;;;;;16.90;99.90;;;;;;5000549;28;19952;-59
2023/08/08 13:36:05;;;;;;;;;;;16.90;99.90;;;;;;5001669;28;19930;-59
2023/08/08 13:38:31;;;;;;;;;;;16.90;99.90;;;;;;5002484;28;19925;-59
2023/08/08 13:41:00;;;;;;;;;;;16.90;99.90;;;;;;5005366;28;19971;-60
2023/08/08 13:43:27;;;;;;;;;;;16.80;99.90;;;;;;5000033;28;19979;-59
2023/08/08 13:45:53;;;;;;;;;;;16.90;99.90;;;;;;5006733;28;19991;-59
2023/08/08 13:48:21;;;;;;;;;;;16.80;99.90;;;;;;4999586;28;19927;-60
2023/08/08 13:50:48;;;;;;;;;;;16.70;99.90;;;;;;5003926;28;19929;-59
2023/08/08 13:53:14;;;;;;;;;;;16.80;99.90;;;;;;4989663;28;19972;-59
2023/08/08 13:55:41;;;;;;;;;;;16.70;99.90;;;;;;4999441;28;20727;-59
2023/08/08 13:58:08;;;;;;;;;;;16.80;99.90;;;;;;4996960;28;19925;-59
2023/08/08 14:00:34;;;;;;;;;;;16.80;99.90;;;;;;5003470;28;20511;-60
2023/08/08 14:03:01;;;;;;;;;;;16.80;99.90;;;;;;4996621;28;20399;-59
2023/08/08 14:05:28;;;;;;;;;;;16.80;99.90;;;;;;5000802;28;20758;-60
2023/08/08 14:07:55;;;;;;;;;;;16.80;99.90;;;;;;4993952;28;20467;-60
2023/08/08 14:10:22;;;;;;;;;;;16.70;99.90;;;;;;5004532;28;20284;-59
2023/08/08 14:12:48;;;;;;;;;;;16.70;99.90;;;;;;4999062;28;19932;-59
2023/08/08 14:15:15;;;;;;;;;;;16.70;99.90;;;;;;4998126;28;19929;-59
2023/08/08 14:17:42;;;;;;;;;;;16.70;99.90;;;;;;4999207;28;20408;-60